Time;durP1;ratioP1;P1;durP2;ratioP2;P2;SDS_P1;SDS_P2;PMS_P1;PMS_P2;Temp;Humidity;BMP_temperature;BMP_pressure;BME280_temperature;BME280_humidity;BME280_pressure;Samples;Min_cycle;Max_cycle;Signal;HPM_P1;HPM_P2
2022/03/26 00:02:19;;;;;;;10.38;1.70;;;20.60;99.90;;;;;;4985417;28;20506;-68
2022/03/26 00:04:46;;;;;;;6.97;1.98;;;20.70;99.90;;;;;;4988780;28;20069;-68
2022/03/26 00:07:13;;;;;;;5.50;0.90;;;20.70;99.90;;;;;;4987404;28;20027;-69
2022/03/26 00:09:40;;;;;;;6.47;1.05;;;20.80;99.90;;;;;;4993177;28;20037;-69
2022/03/26 00:12:08;;;;;;;9.43;1.83;;;20.80;99.90;;;;;;4987748;28;20032;-69
2022/03/26 00:14:35;;;;;;;6.43;1.23;;;20.80;99.90;;;;;;4984306;28;20034;-70
2022/03/26 00:17:03;;;;;;;7.63;1.05;;;20.90;99.90;;;;;;4981601;28;20034;-70
2022/03/26 00:19:30;;;;;;;8.30;1.40;;;20.90;99.90;;;;;;4984518;28;20027;-69
2022/03/26 00:21:58;;;;;;;6.35;1.63;;;20.90;99.90;;;;;;4985457;28;20027;-69
2022/03/26 00:24:25;;;;;;;7.93;1.30;;;20.90;99.90;;;;;;4989935;28;20038;-69
2022/03/26 00:26:52;;;;;;;5.10;0.90;;;20.90;99.90;;;;;;4984240;28;20069;-69
2022/03/26 00:29:20;;;;;;;4.65;0.65;;;20.80;99.90;;;;;;4992422;28;20449;-69
2022/03/26 00:31:47;;;;;;;5.13;0.80;;;20.70;99.90;;;;;;4990278;28;20022;-69
2022/03/26 00:34:14;;;;;;;9.70;1.33;;;20.70;99.90;;;;;;4977764;28;20663;-69
2022/03/26 00:36:42;;;;;;;5.20;1.05;;;20.70;99.90;;;;;;4991073;28;20030;-69
2022/03/26 00:39:09;;;;;;;3.72;0.80;;;20.80;99.90;;;;;;4982973;28;20034;-69
2022/03/26 00:41:36;;;;;;;5.57;1.10;;;20.90;99.90;;;;;;4982642;28;20430;-69
2022/03/26 00:44:04;;;;;;;3.38;0.75;;;21.00;99.90;;;;;;4980018;28;20042;-68
2022/03/26 00:46:31;;;;;;;4.15;0.85;;;21.00;99.90;;;;;;4985840;28;20380;-69
2022/03/26 00:48:59;;;;;;;7.47;1.48;;;21.00;99.90;;;;;;4991347;28;20035;-68
2022/03/26 00:51:27;;;;;;;4.63;1.02;;;21.00;99.90;;;;;;4983366;28;20117;-68
2022/03/26 00:53:54;;;;;;;2.95;0.80;;;21.00;99.90;;;;;;4985186;28;20026;-68
2022/03/26 00:56:21;;;;;;;4.55;1.08;;;21.10;99.90;;;;;;4983772;28;20034;-68
2022/03/26 00:58:48;;;;;;;5.32;1.55;;;21.00;99.90;;;;;;4989531;28;20018;-69
2022/03/26 01:01:16;;;;;;;3.08;0.82;;;21.00;99.90;;;;;;4990914;28;20084;-68
2022/03/26 01:03:43;;;;;;;4.03;1.23;;;21.00;99.90;;;;;;4983822;28;20506;-69
2022/03/26 01:06:11;;;;;;;6.60;1.45;;;21.00;99.90;;;;;;4991078;28;20070;-69
2022/03/26 01:08:38;;;;;;;3.78;0.90;;;21.00;99.90;;;;;;4986023;28;20499;-69
2022/03/26 01:11:06;;;;;;;2.55;0.88;;;21.00;99.90;;;;;;4984672;28;20026;-69
2022/03/26 01:13:39;;;;;;;7.00;1.05;;;20.90;99.90;;;;;;4989887;28;20054;-69
2022/03/26 01:16:07;;;;;;;4.38;0.73;;;20.90;99.90;;;;;;4978483;28;20062;-68
2022/03/26 01:18:34;;;;;;;3.33;0.93;;;20.90;99.90;;;;;;4988281;28;20053;-68
2022/03/26 01:21:04;;;;;;;3.80;0.65;;;20.90;99.90;;;;;;4988046;28;20023;-68
2022/03/26 01:23:31;;;;;;;7.90;1.98;;;20.90;99.90;;;;;;4977445;28;20048;-68
2022/03/26 01:25:58;;;;;;;3.25;1.17;;;20.90;99.90;;;;;;4983165;28;20058;-69
2022/03/26 01:28:26;;;;;;;6.28;1.52;;;20.80;99.90;;;;;;4978217;28;20648;-68
2022/03/26 01:30:54;;;;;;;4.43;0.80;;;20.70;99.90;;;;;;4980174;28;20030;-67
2022/03/26 01:33:21;;;;;;;4.90;1.67;;;20.60;99.90;;;;;;4989338;28;20468;-68
2022/03/26 01:35:48;;;;;;;4.20;0.90;;;20.40;99.90;;;;;;4988519;28;20027;-69
2022/03/26 01:38:16;;;;;;;3.40;0.73;;;20.30;99.90;;;;;;4992405;28;20058;-70
2022/03/26 01:40:43;;;;;;;9.18;1.40;;;20.50;99.90;;;;;;4985474;28;20027;-70
2022/03/26 01:43:11;;;;;;;3.85;0.80;;;20.40;99.90;;;;;;4992219;28;20029;-69
2022/03/26 01:45:38;;;;;;;3.95;0.88;;;20.40;99.90;;;;;;4988548;28;20118;-68
2022/03/26 01:48:06;;;;;;;3.63;0.70;;;20.40;99.90;;;;;;4985541;28;20030;-69
2022/03/26 01:50:33;;;;;;;3.60;0.70;;;20.50;99.90;;;;;;4985334;28;20022;-70
2022/03/26 01:53:01;;;;;;;5.32;0.85;;;20.60;99.90;;;;;;4994205;28;20433;-70
2022/03/26 01:55:29;;;;;;;4.25;1.20;;;20.70;99.90;;;;;;4987990;28;20407;-70
2022/03/26 01:57:56;;;;;;;2.25;0.70;;;20.70;99.90;;;;;;4984291;28;20027;-70
2022/03/26 02:00:23;;;;;;;2.58;0.93;;;20.90;99.90;;;;;;4988389;28;20031;-70
2022/03/26 02:02:51;;;;;;;3.97;1.02;;;21.00;99.90;;;;;;4979275;28;20057;-69
2022/03/26 02:05:20;;;;;;;2.38;1.00;;;21.20;99.90;;;;;;4990427;28;20034;-69
2022/03/26 02:07:50;;;;;;;5.63;1.52;;;21.40;99.90;;;;;;4984792;28;20467;-69
2022/03/26 02:10:19;;;;;;;2.72;0.60;;;21.60;99.90;;;;;;4992260;28;20077;-70
2022/03/26 02:12:47;;;;;;;1.55;0.50;;;21.50;99.90;;;;;;4993600;28;20105;-69
2022/03/26 02:15:16;;;;;;;2.60;0.55;;;21.50;99.90;;;;;;5005910;28;20065;-69
2022/03/26 02:17:43;;;;;;;2.60;0.40;;;21.60;99.90;;;;;;4981643;28;20033;-69
2022/03/26 02:20:13;;;;;;;1.65;0.40;;;21.70;99.90;;;;;;4978607;28;20467;-68
2022/03/26 02:22:41;;;;;;;1.35;0.75;;;21.70;99.90;;;;;;4986685;28;20057;-69
2022/03/26 02:25:10;;;;;;;4.13;0.60;;;21.70;99.90;;;;;;4987748;28;20042;-69
2022/03/26 02:27:37;;;;;;;1.48;0.50;;;21.70;99.90;;;;;;4987192;28;20454;-68
2022/03/26 02:30:06;;;;;;;2.78;0.57;;;21.70;99.90;;;;;;4985544;28;20053;-69
2022/03/26 02:32:34;;;;;;;2.80;0.65;;;21.60;99.90;;;;;;4988370;28;20085;-68
2022/03/26 02:35:01;;;;;;;2.85;0.40;;;21.50;99.90;;;;;;4991571;28;20041;-69
2022/03/26 02:37:29;;;;;;;4.70;0.98;;;21.50;99.90;;;;;;4978352;28;20105;-68
2022/03/26 02:39:57;;;;;;;4.20;0.77;;;21.40;99.90;;;;;;4987664;28;20474;-68
2022/03/26 02:42:24;;;;;;;5.28;1.10;;;21.30;99.90;;;;;;4990961;28;20124;-68
2022/03/26 02:44:52;;;;;;;8.00;1.40;;;21.10;99.90;;;;;;4993813;28;20054;-67
2022/03/26 02:47:19;;;;;;;3.75;0.82;;;20.80;99.90;;;;;;4993502;28;20118;-67
2022/03/26 02:49:47;;;;;;;2.70;0.98;;;20.70;99.90;;;;;;4987417;28;20023;-66
2022/03/26 02:52:14;;;;;;;4.70;0.88;;;20.60;99.90;;;;;;4993474;28;20018;-67
2022/03/26 02:54:43;;;;;;;4.22;0.80;;;20.40;99.90;;;;;;4988070;28;20076;-67
2022/03/26 02:57:10;;;;;;;6.78;1.23;;;20.60;99.90;;;;;;4991215;28;20483;-68
2022/03/26 02:59:38;;;;;;;3.55;1.15;;;20.60;99.90;;;;;;4982076;28;20018;-67
2022/03/26 03:02:07;;;;;;;7.22;1.70;;;20.70;99.90;;;;;;4991419;28;20046;-67
2022/03/26 03:04:34;;;;;;;5.68;0.95;;;20.70;99.90;;;;;;4993691;28;20031;-67
2022/03/26 03:07:02;;;;;;;4.60;0.75;;;20.70;99.90;;;;;;4986114;28;20438;-68
2022/03/26 03:09:29;;;;;;;5.95;1.33;;;20.80;99.90;;;;;;4989442;28;20118;-67
2022/03/26 03:11:58;;;;;;;3.13;0.60;;;20.80;99.90;;;;;;4990711;28;20072;-67
2022/03/26 03:14:25;;;;;;;4.70;0.60;;;20.80;99.90;;;;;;4994774;28;20041;-67
2022/03/26 03:16:53;;;;;;;4.85;0.70;;;20.90;99.90;;;;;;4986373;28;20022;-68
2022/03/26 03:19:20;;;;;;;3.30;0.80;;;21.00;99.90;;;;;;4989692;28;20019;-67
2022/03/26 03:21:47;;;;;;;3.60;1.00;;;21.10;99.90;;;;;;4989739;28;20024;-67
2022/03/26 03:24:15;;;;;;;7.35;1.20;;;21.10;99.90;;;;;;4991493;28;20117;-67
2022/03/26 03:26:42;;;;;;;6.47;1.17;;;21.10;99.90;;;;;;4989307;28;20027;-67
2022/03/26 03:29:09;;;;;;;5.07;0.80;;;21.10;99.90;;;;;;4993049;28;20022;-67
2022/03/26 03:31:37;;;;;;;6.28;1.27;;;21.00;99.90;;;;;;4986624;28;20391;-68
2022/03/26 03:34:04;;;;;;;4.05;1.42;;;21.10;99.90;;;;;;4994806;28;20031;-67
2022/03/26 03:36:31;;;;;;;5.38;0.93;;;21.10;99.90;;;;;;4988616;28;20045;-67
2022/03/26 03:38:59;;;;;;;5.03;1.27;;;21.10;99.90;;;;;;4990916;28;20061;-68
2022/03/26 03:41:27;;;;;;;2.60;0.60;;;21.10;99.90;;;;;;4975598;28;20027;-67
2022/03/26 03:43:54;;;;;;;3.95;0.90;;;21.10;99.90;;;;;;4987584;28;20058;-67
2022/03/26 03:46:21;;;;;;;4.63;1.02;;;21.00;99.90;;;;;;4981882;28;20031;-67
2022/03/26 03:48:48;;;;;;;2.17;0.73;;;21.00;99.90;;;;;;4988883;28;20383;-67
2022/03/26 03:51:16;;;;;;;4.75;0.82;;;21.10;99.90;;;;;;4981927;28;20033;-67
2022/03/26 03:53:43;;;;;;;4.25;0.90;;;21.10;99.90;;;;;;4990072;28;20026;-68
2022/03/26 03:56:10;;;;;;;3.97;0.63;;;21.00;99.90;;;;;;4983261;28;20494;-68
2022/03/26 03:58:37;;;;;;;2.78;0.60;;;20.90;99.90;;;;;;4974715;28;20034;-67
2022/03/26 04:01:05;;;;;;;4.60;0.98;;;20.90;99.90;;;;;;4974755;28;20106;-67
2022/03/26 04:03:32;;;;;;;2.78;0.50;;;20.90;99.90;;;;;;4974627;28;20122;-68
2022/03/26 04:06:00;;;;;;;2.53;0.80;;;20.90;99.90;;;;;;4982278;28;20041;-67
2022/03/26 04:08:28;;;;;;;3.30;0.88;;;21.00;99.90;;;;;;4993791;28;20029;-67
2022/03/26 04:10:55;;;;;;;3.50;0.50;;;21.10;99.90;;;;;;4981198;28;20372;-68
2022/03/26 04:13:22;;;;;;;3.90;0.90;;;21.00;99.90;;;;;;4973880;28;20027;-68
2022/03/26 04:15:50;;;;;;;4.15;0.98;;;21.10;99.90;;;;;;4987718;28;20022;-67
2022/03/26 04:18:17;;;;;;;3.28;0.52;;;21.10;99.90;;;;;;4992979;28;20026;-66
2022/03/26 04:20:44;;;;;;;3.88;0.60;;;21.10;99.90;;;;;;4985280;28;20034;-67
2022/03/26 04:23:11;;;;;;;3.38;0.70;;;21.20;99.90;;;;;;4974104;28;20102;-67
2022/03/26 04:25:39;;;;;;;3.33;1.30;;;21.20;99.90;;;;;;4974417;28;20045;-67
2022/03/26 04:28:06;;;;;;;6.65;0.98;;;21.30;99.90;;;;;;4993160;28;20022;-67
2022/03/26 04:30:33;;;;;;;1.50;0.52;;;21.40;99.90;;;;;;4991968;28;20124;-68
2022/03/26 04:33:01;;;;;;;2.22;0.50;;;21.30;99.90;;;;;;4976864;28;20510;-68
2022/03/26 04:35:28;;;;;;;2.28;0.70;;;21.20;99.90;;;;;;4978783;28;20049;-67
2022/03/26 04:37:56;;;;;;;3.03;0.60;;;21.30;99.90;;;;;;4993489;28;20080;-68
2022/03/26 04:40:24;;;;;;;4.00;0.50;;;21.10;99.90;;;;;;4990185;28;20026;-66
2022/03/26 04:42:52;;;;;;;2.25;0.70;;;21.00;99.90;;;;;;4984741;28;20109;-68
2022/03/26 04:45:19;;;;;;;4.38;0.77;;;21.00;99.90;;;;;;4983276;28;20046;-68
2022/03/26 04:47:47;;;;;;;3.70;0.45;;;21.10;99.90;;;;;;4973626;28;20500;-68
2022/03/26 04:50:14;;;;;;;3.53;0.60;;;21.00;99.90;;;;;;4982851;28;20105;-69
2022/03/26 04:52:42;;;;;;;3.50;0.60;;;21.00;99.90;;;;;;4992624;28;20026;-69
2022/03/26 04:55:11;;;;;;;3.45;0.40;;;21.10;99.90;;;;;;4989968;28;20034;-67
2022/03/26 04:57:42;;;;;;;2.55;0.50;;;21.10;99.90;;;;;;4983809;28;20128;-69
2022/03/26 05:00:12;;;;;;;0.93;0.38;;;21.00;99.90;;;;;;4990532;28;20035;-68
2022/03/26 05:02:40;;;;;;;3.03;0.50;;;21.00;99.90;;;;;;4989095;28;20471;-69
2022/03/26 05:05:09;;;;;;;6.63;1.58;;;21.10;99.90;;;;;;4983569;28;20117;-67
2022/03/26 05:07:46;;;;;;;5.65;0.50;;;21.10;99.90;;;;;;4977564;28;20030;-68
2022/03/26 05:10:27;;;;;;;2.20;0.60;;;21.10;99.90;;;;;;4983888;28;20033;-69
2022/03/26 05:12:55;;;;;;;2.38;0.65;;;21.00;99.90;;;;;;4989252;28;20023;-68
2022/03/26 05:15:24;;;;;;;6.53;0.60;;;21.00;99.90;;;;;;4985010;28;20061;-68
2022/03/26 05:17:52;;;;;;;4.47;0.95;;;21.10;99.90;;;;;;4979804;28;20026;-68
2022/03/26 05:20:20;;;;;;;2.78;0.45;;;21.10;99.90;;;;;;4990612;28;20170;-68
2022/03/26 05:22:48;;;;;;;3.08;0.93;;;21.10;99.90;;;;;;4982872;28;20061;-68
2022/03/26 05:25:17;;;;;;;1.75;0.60;;;21.10;99.90;;;;;;4992563;28;20141;-68
2022/03/26 05:27:48;;;;;;;3.72;0.70;;;21.10;99.90;;;;;;4989639;28;20102;-68
2022/03/26 05:30:17;;;;;;;4.18;1.10;;;21.10;99.90;;;;;;4982704;28;20022;-68
2022/03/26 05:32:45;;;;;;;6.05;0.98;;;21.10;99.90;;;;;;4993619;28;20037;-68
2022/03/26 05:35:16;;;;;;;2.75;0.55;;;21.10;99.90;;;;;;4993033;28;20023;-69
2022/03/26 05:37:48;;;;;;;5.45;0.82;;;21.20;99.90;;;;;;4979752;28;20065;-68
2022/03/26 05:40:18;;;;;;;5.50;0.95;;;21.20;99.90;;;;;;4993207;28;20039;-68
2022/03/26 05:42:46;;;;;;;5.38;1.13;;;21.20;99.90;;;;;;4995451;28;20027;-68
2022/03/26 05:45:14;;;;;;;3.42;0.50;;;21.30;99.90;;;;;;4989843;28;20510;-68
2022/03/26 05:47:42;;;;;;;3.58;0.70;;;21.20;99.90;;;;;;4990300;28;20103;-68
2022/03/26 05:50:12;;;;;;;4.57;0.68;;;21.20;99.90;;;;;;4977047;28;20294;-69
2022/03/26 05:52:41;;;;;;;5.88;1.10;;;21.20;99.90;;;;;;4993824;28;20514;-68
2022/03/26 05:55:09;;;;;;;4.22;0.73;;;21.30;99.90;;;;;;4989136;28;20101;-68
2022/03/26 05:57:36;;;;;;;4.95;1.02;;;21.20;99.90;;;;;;4996058;28;20033;-67
2022/03/26 06:00:05;;;;;;;3.15;0.65;;;21.20;99.90;;;;;;4996510;28;20076;-67
2022/03/26 06:02:33;;;;;;;2.78;0.82;;;21.20;99.90;;;;;;4994814;28;20398;-67
2022/03/26 06:05:00;;;;;;;2.85;0.60;;;21.10;99.90;;;;;;4995162;28;20038;-67
2022/03/26 06:07:27;;;;;;;5.13;0.95;;;21.10;99.90;;;;;;4991899;28;20057;-68
2022/03/26 06:09:55;;;;;;;6.03;1.23;;;21.00;99.90;;;;;;4991813;28;20533;-68
2022/03/26 06:12:22;;;;;;;3.25;0.77;;;20.90;99.90;;;;;;4993954;28;20026;-67
2022/03/26 06:14:49;;;;;;;3.08;0.68;;;21.00;99.90;;;;;;4993508;28;20117;-67
2022/03/26 06:17:17;;;;;;;3.33;0.77;;;21.00;99.90;;;;;;4994835;28;20071;-67
2022/03/26 06:19:44;;;;;;;5.13;0.73;;;21.10;99.90;;;;;;4996027;28;20031;-67
2022/03/26 06:22:12;;;;;;;3.03;0.57;;;21.00;99.90;;;;;;4987175;28;20038;-67
2022/03/26 06:24:42;;;;;;;4.25;0.80;;;21.00;99.90;;;;;;4985631;28;20122;-68
2022/03/26 06:27:09;;;;;;;5.20;0.65;;;21.10;99.90;;;;;;4989393;28;20026;-68
2022/03/26 06:29:36;;;;;;;8.00;3.08;;;21.10;99.90;;;;;;5008721;28;20022;-68
2022/03/26 06:32:04;;;;;;;3.42;1.02;;;21.10;99.90;;;;;;4990661;28;21235;-67
2022/03/26 06:34:32;;;;;;;3.13;0.85;;;21.10;99.90;;;;;;4992029;28;20826;-68
2022/03/26 06:36:59;;;;;;;5.30;1.40;;;21.10;99.90;;;;;;4996131;28;20457;-67
2022/03/26 06:39:26;;;;;;;7.82;4.30;;;21.10;99.90;;;;;;4982055;28;20080;-67
2022/03/26 06:41:54;;;;;;;3.83;1.02;;;21.00;99.90;;;;;;4996977;28;20026;-67
2022/03/26 06:44:21;;;;;;;5.97;1.25;;;21.00;99.90;;;;;;4997134;28;20137;-67
2022/03/26 06:46:48;;;;;;;8.07;3.78;;;20.90;99.90;;;;;;4996978;28;20041;-69
2022/03/26 06:49:16;;;;;;;3.50;1.55;;;21.00;99.90;;;;;;4992609;28;20479;-67
2022/03/26 06:51:43;;;;;;;4.07;2.25;;;21.00;99.90;;;;;;4996824;28;20019;-68
2022/03/26 06:54:10;;;;;;;4.68;0.93;;;20.90;99.90;;;;;;4997503;28;20026;-67
2022/03/26 06:56:37;;;;;;;4.88;1.02;;;20.90;99.90;;;;;;4998192;28;20037;-68
2022/03/26 06:59:05;;;;;;;3.78;0.98;;;20.90;99.90;;;;;;4996402;28;20387;-68
2022/03/26 07:01:33;;;;;;;5.65;0.75;;;20.90;99.90;;;;;;4989504;28;20019;-67
2022/03/26 07:04:00;;;;;;;3.58;1.00;;;20.90;99.90;;;;;;4995119;28;20045;-67
2022/03/26 07:06:27;;;;;;;7.43;1.20;;;20.90;99.90;;;;;;4988371;28;20042;-67
2022/03/26 07:08:55;;;;;;;4.50;0.85;;;20.90;99.90;;;;;;4994551;28;20478;-67
2022/03/26 07:11:22;;;;;;;2.80;0.85;;;20.90;99.90;;;;;;4984899;28;20030;-68
2022/03/26 07:13:49;;;;;;;2.85;0.75;;;20.80;99.90;;;;;;4996033;28;20030;-67
2022/03/26 07:16:17;;;;;;;6.72;1.00;;;20.80;99.90;;;;;;4995606;28;20030;-67
2022/03/26 07:18:44;;;;;;;7.25;1.42;;;20.80;99.90;;;;;;4995383;28;20037;-67
2022/03/26 07:21:12;;;;;;;4.82;1.20;;;20.80;99.90;;;;;;4994432;28;20077;-67
2022/03/26 07:23:39;;;;;;;5.50;2.58;;;20.80;99.90;;;;;;4995823;28;20133;-68
2022/03/26 07:26:06;;;;;;;6.78;1.25;;;20.80;99.90;;;;;;4991372;28;20549;-68
2022/03/26 07:28:34;;;;;;;4.50;1.58;;;20.80;99.90;;;;;;4991605;28;20027;-68
2022/03/26 07:31:01;;;;;;;20.35;14.48;;;20.70;99.90;;;;;;4993286;28;20105;-67
2022/03/26 07:33:28;;;;;;;7.85;1.95;;;20.70;99.90;;;;;;4994483;28;20027;-68
2022/03/26 07:35:56;;;;;;;6.13;1.13;;;20.80;99.90;;;;;;4992335;28;20029;-67
2022/03/26 07:38:23;;;;;;;5.30;0.73;;;20.70;99.90;;;;;;4994642;28;20035;-68
2022/03/26 07:40:50;;;;;;;3.92;0.77;;;20.70;99.90;;;;;;4995430;28;20026;-67
2022/03/26 07:43:18;;;;;;;3.53;0.52;;;20.70;99.90;;;;;;4993958;28;20533;-68
2022/03/26 07:45:45;;;;;;;4.85;2.20;;;20.70;99.90;;;;;;4985435;28;20057;-67
2022/03/26 07:48:12;;;;;;;4.50;1.60;;;20.70;99.90;;;;;;4988586;28;20109;-68
2022/03/26 07:50:40;;;;;;;4.43;1.40;;;20.70;99.90;;;;;;4995162;28;20386;-67
2022/03/26 07:53:07;;;;;;;5.50;1.40;;;20.60;99.90;;;;;;4988622;28;20033;-67
2022/03/26 07:55:34;;;;;;;3.08;1.00;;;20.60;99.90;;;;;;4997303;28;20057;-67
2022/03/26 07:58:01;;;;;;;5.07;1.33;;;20.60;99.90;;;;;;4992684;28;20126;-67
2022/03/26 08:00:29;;;;;;;4.60;0.90;;;20.60;99.90;;;;;;4997151;28;20383;-68
2022/03/26 08:02:56;;;;;;;6.07;1.85;;;20.50;99.90;;;;;;4996552;28;20046;-67
2022/03/26 08:05:23;;;;;;;5.22;1.10;;;20.60;99.90;;;;;;4996946;28;20082;-67
2022/03/26 08:07:50;;;;;;;3.65;0.85;;;20.50;99.90;;;;;;4994700;28;20038;-66
2022/03/26 08:10:18;;;;;;;3.60;1.25;;;20.60;99.90;;;;;;4997822;28;20029;-67
2022/03/26 08:12:45;;;;;;;8.27;2.22;;;20.60;99.90;;;;;;4997521;28;20117;-67
2022/03/26 08:15:12;;;;;;;3.80;1.38;;;20.50;99.90;;;;;;4996940;28;20218;-68
2022/03/26 08:17:40;;;;;;;6.30;1.50;;;20.50;99.90;;;;;;5000120;28;20084;-67
2022/03/26 08:20:07;;;;;;;4.50;1.33;;;20.50;99.90;;;;;;4993035;28;20061;-66
2022/03/26 08:22:35;;;;;;;6.47;1.30;;;20.50;99.90;;;;;;4984674;28;20112;-67
2022/03/26 08:25:03;;;;;;;5.20;1.90;;;20.40;99.90;;;;;;4996201;28;20481;-67
2022/03/26 08:27:31;;;;;;;4.07;1.40;;;20.40;99.90;;;;;;4983483;28;20477;-67
2022/03/26 08:29:58;;;;;;;5.78;1.70;;;20.40;99.90;;;;;;4992338;28;20026;-67
2022/03/26 08:32:25;;;;;;;5.22;1.35;;;20.50;99.90;;;;;;4994847;28;20022;-67
2022/03/26 08:34:52;;;;;;;8.50;1.65;;;20.40;99.90;;;;;;5011268;28;20126;-67
2022/03/26 08:37:20;;;;;;;6.10;1.27;;;20.30;99.90;;;;;;4993220;28;20034;-68
2022/03/26 08:39:47;;;;;;;5.07;1.20;;;20.10;99.90;;;;;;4991767;28;20030;-67
2022/03/26 08:42:14;;;;;;;7.78;1.55;;;19.80;99.90;;;;;;4998661;28;20030;-67
2022/03/26 08:44:41;;;;;;;4.80;1.67;;;19.70;99.90;;;;;;4999599;28;20050;-66
2022/03/26 08:47:11;;;;;;;4.00;1.27;;;19.60;99.90;;;;;;4998059;28;20052;-67
2022/03/26 08:49:40;;;;;;;8.82;1.67;;;19.50;99.90;;;;;;4999537;28;20471;-66
2022/03/26 08:52:10;;;;;;;7.68;1.63;;;19.50;99.90;;;;;;4997867;28;20458;-66
2022/03/26 08:54:38;;;;;;;4.50;1.30;;;19.40;99.90;;;;;;4997911;28;20446;-66
2022/03/26 08:57:05;;;;;;;3.30;1.35;;;19.40;99.90;;;;;;4997097;28;20121;-66
2022/03/26 08:59:32;;;;;;;5.13;1.42;;;19.40;99.90;;;;;;4998355;28;20110;-67
2022/03/26 09:02:00;;;;;;;5.60;1.38;;;19.50;99.90;;;;;;4997678;28;20486;-66
2022/03/26 09:04:27;;;;;;;5.20;1.10;;;19.40;99.90;;;;;;4993184;28;20105;-66
2022/03/26 09:06:54;;;;;;;8.40;1.10;;;19.50;99.90;;;;;;5000458;28;20045;-66
2022/03/26 09:09:21;;;;;;;5.28;1.75;;;19.50;99.90;;;;;;5000182;28;20041;-66
2022/03/26 09:11:49;;;;;;;5.93;2.63;;;19.40;99.90;;;;;;4998533;28;20026;-66
2022/03/26 09:14:17;;;;;;;5.13;1.70;;;19.40;99.90;;;;;;4999038;28;20096;-66
2022/03/26 09:16:44;;;;;;;4.97;1.33;;;19.40;99.90;;;;;;4991582;28;20058;-66
2022/03/26 09:19:11;;;;;;;6.13;1.95;;;19.40;99.90;;;;;;4977999;28;20034;-66
2022/03/26 09:21:38;;;;;;;6.90;1.55;;;19.40;99.90;;;;;;4992820;28;20054;-66
2022/03/26 09:24:06;;;;;;;10.45;1.67;;;19.30;99.90;;;;;;4997247;28;20073;-67
2022/03/26 09:26:33;;;;;;;4.50;1.63;;;19.40;99.90;;;;;;4995068;28;20045;-66
2022/03/26 09:29:00;;;;;;;3.97;1.83;;;19.40;99.90;;;;;;4998460;28;20034;-66
2022/03/26 09:31:28;;;;;;;4.57;1.67;;;19.20;99.90;;;;;;4995250;28;20035;-67
2022/03/26 09:33:55;;;;;;;8.73;1.85;;;19.30;99.90;;;;;;4996579;28;20018;-66
2022/03/26 09:36:22;;;;;;;3.67;1.60;;;19.20;99.90;;;;;;4991716;28;20066;-66
2022/03/26 09:38:49;;;;;;;7.22;1.83;;;19.20;99.90;;;;;;4976603;28;20038;-66
2022/03/26 09:41:17;;;;;;;3.15;1.30;;;19.20;99.90;;;;;;4988787;28;20026;-66
2022/03/26 09:43:45;;;;;;;3.85;1.13;;;19.30;99.90;;;;;;4994954;28;20030;-66
2022/03/26 09:46:12;;;;;;;5.32;1.45;;;19.20;99.90;;;;;;4987246;28;20081;-66
2022/03/26 09:48:40;;;;;;;7.38;2.05;;;19.20;99.90;;;;;;4987327;28;20486;-66
2022/03/26 09:51:09;;;;;;;6.55;1.63;;;19.10;99.90;;;;;;4994232;28;20022;-66
2022/03/26 09:53:36;;;;;;;5.60;2.13;;;19.10;99.90;;;;;;4993524;28;20034;-66
2022/03/26 09:56:04;;;;;;;3.47;1.40;;;19.10;99.90;;;;;;4993009;28;20526;-67
2022/03/26 09:58:31;;;;;;;7.82;2.08;;;19.00;99.90;;;;;;4995339;28;20023;-66
2022/03/26 10:00:59;;;;;;;5.75;1.50;;;19.00;99.90;;;;;;4995384;28;20478;-66
2022/03/26 10:03:26;;;;;;;8.90;1.70;;;19.00;99.90;;;;;;4975135;28;20046;-66
2022/03/26 10:06:09;;;;;;;6.30;1.55;;;18.90;99.90;;;;;;4997810;28;20041;-67
2022/03/26 10:08:38;;;;;;;5.47;2.00;;;18.80;99.90;;;;;;4994505;28;20023;-67
2022/03/26 10:11:09;;;;;;;8.32;1.85;;;18.80;99.90;;;;;;4989017;28;20022;-67
2022/03/26 10:13:43;;;;;;;7.32;1.92;;;18.70;99.90;;;;;;4998137;28;20022;-67
2022/03/26 10:16:14;;;;;;;8.15;1.08;;;18.70;99.90;;;;;;4998170;28;20022;-67
2022/03/26 10:18:43;;;;;;;5.07;1.30;;;18.60;99.90;;;;;;4998643;28;20028;-66
2022/03/26 10:21:22;;;;;;;9.30;1.55;;;18.60;99.90;;;;;;5012506;28;20041;-66
2022/03/26 10:23:51;;;;;;;6.13;1.75;;;18.50;99.90;;;;;;5002906;28;20038;-66
2022/03/26 10:26:21;;;;;;;4.20;1.20;;;18.50;99.90;;;;;;4995605;28;20110;-67
2022/03/26 10:28:59;;;;;;;6.43;1.55;;;18.50;99.90;;;;;;4995252;28;20026;-67
2022/03/26 10:34:21;;;;;;;10.10;1.85;;;18.50;99.90;;;;;;4995648;28;20037;-66
2022/03/26 10:37:01;;;;;;;7.40;1.88;;;18.50;99.90;;;;;;4990172;28;20446;-66
2022/03/26 10:39:30;;;;;;;6.50;2.35;;;18.40;99.90;;;;;;4985124;28;20027;-67
2022/03/26 10:41:58;;;;;;;4.82;1.52;;;18.40;99.90;;;;;;4994373;28;20046;-68
2022/03/26 10:44:28;;;;;;;6.97;2.20;;;18.20;99.90;;;;;;4993046;28;20051;-68
2022/03/26 10:46:55;;;;;;;14.20;6.53;;;18.30;99.90;;;;;;4994992;28;20037;-67
2022/03/26 10:49:37;;;;;;;9.75;3.88;;;18.30;99.90;;;;;;4994522;28;20022;-68
2022/03/26 10:52:14;;;;;;;4.78;1.40;;;18.30;99.90;;;;;;4986751;28;20031;-68
2022/03/26 10:54:42;;;;;;;6.55;2.03;;;18.30;99.90;;;;;;4993104;28;20052;-68
2022/03/26 10:57:10;;;;;;;5.82;1.85;;;18.30;99.90;;;;;;4989829;28;20037;-66
2022/03/26 10:59:37;;;;;;;11.38;1.88;;;18.30;99.90;;;;;;4995080;28;20022;-66
2022/03/26 11:02:05;;;;;;;6.60;2.95;;;18.30;99.90;;;;;;4995041;28;20049;-66
2022/03/26 11:04:32;;;;;;;9.05;4.50;;;18.20;99.90;;;;;;4984362;28;20030;-65
2022/03/26 11:06:59;;;;;;;8.07;3.42;;;18.20;99.90;;;;;;4994907;28;20030;-65
2022/03/26 11:09:27;;;;;;;10.02;3.30;;;18.20;99.90;;;;;;5010088;28;20030;-65
2022/03/26 11:11:58;;;;;;;7.03;2.67;;;18.10;99.90;;;;;;5007864;28;20041;-66
2022/03/26 11:14:40;;;;;;;6.47;2.65;;;18.10;99.90;;;;;;4994676;28;20030;-65
2022/03/26 11:17:19;;;;;;;7.70;2.90;;;18.10;99.90;;;;;;4992457;28;20018;-65
2022/03/26 11:20:13;;;;;;;6.35;3.22;;;18.00;99.90;;;;;;4992049;28;20022;-65
2022/03/26 11:22:50;;;;;;;4.00;2.40;;;18.10;99.90;;;;;;4993434;28;20038;-66
2022/03/26 11:25:22;;;;;;;6.78;2.40;;;18.10;99.90;;;;;;4992585;28;20557;-65
2022/03/26 11:28:10;;;;;;;8.93;2.58;;;18.10;99.90;;;;;;4994560;28;20056;-65
2022/03/26 11:30:51;;;;;;;6.90;2.50;;;18.20;99.90;;;;;;4984299;28;20399;-66
2022/03/26 11:33:20;;;;;;;6.03;2.15;;;18.20;99.90;;;;;;4991575;28;20394;-67
2022/03/26 11:35:56;;;;;;;4.97;2.28;;;18.20;99.90;;;;;;4987696;28;20482;-66
2022/03/26 11:38:28;;;;;;;6.07;2.30;;;18.20;99.90;;;;;;4989050;28;20022;-66
2022/03/26 11:40:58;;;;;;;8.68;3.10;;;18.10;99.90;;;;;;5006389;28;20108;-67
2022/03/26 11:43:43;;;;;;;10.27;5.93;;;17.90;99.90;;;;;;4986559;28;20448;-66
2022/03/26 11:52:18;;;;;;;12.43;4.15;;;17.70;99.90;;;;;;4988800;28;20065;-66
2022/03/26 11:54:47;;;;;;;6.20;2.67;;;17.70;99.90;;;;;;4993538;28;20038;-66
2022/03/26 11:57:20;;;;;;;9.85;2.90;;;17.60;99.90;;;;;;4990813;28;20034;-66
2022/03/26 11:59:49;;;;;;;12.90;2.67;;;17.60;99.90;;;;;;5008509;28;20030;-66
2022/03/26 12:02:25;;;;;;;6.25;2.53;;;17.60;99.90;;;;;;4984208;28;20479;-66
2022/03/26 12:06:35;;;;;;;9.88;2.78;;;17.70;99.90;;;;;;4986322;28;20034;-67
2022/03/26 12:08:08;;;;;;;6.85;3.38;;;17.80;99.90;;;;;;4990369;28;20038;-68
2022/03/26 12:10:36;;;;;;;7.32;4.00;;;17.70;99.90;;;;;;4986705;28;20030;-67
2022/03/26 12:13:04;;;;;;;10.93;4.03;;;17.60;99.90;;;;;;4979825;28;20106;-68
2022/03/26 12:15:34;;;;;;;7.22;3.22;;;17.60;99.90;;;;;;4993255;28;20026;-67
2022/03/26 12:18:11;;;;;;;8.55;3.55;;;17.60;99.90;;;;;;4993849;28;20025;-67
2022/03/26 12:20:47;;;;;;;8.80;3.33;;;17.70;99.90;;;;;;5004376;28;20042;-67
2022/03/26 12:23:29;;;;;;;6.88;3.30;;;17.80;99.90;;;;;;4994199;28;20037;-67
2022/03/26 12:26:05;;;;;;;7.20;2.97;;;17.80;99.90;;;;;;4989828;28;20474;-67
2022/03/26 12:28:37;;;;;;;8.30;3.58;;;17.80;99.90;;;;;;4993224;28;20486;-67
2022/03/26 12:31:17;;;;;;;8.27;3.63;;;17.90;99.90;;;;;;4993956;28;20026;-67
2022/03/26 12:33:45;;;;;;;8.25;3.00;;;18.00;99.90;;;;;;4979508;28;20033;-67
2022/03/26 12:36:17;;;;;;;8.95;4.72;;;17.90;99.90;;;;;;4992999;28;20052;-67
2022/03/26 12:38:50;;;;;;;8.32;3.15;;;18.00;99.90;;;;;;5003072;28;20386;-67
2022/03/26 12:41:17;;;;;;;7.60;2.42;;;18.00;99.90;;;;;;4985875;28;20029;-67
2022/03/26 12:44:01;;;;;;;6.35;2.15;;;18.00;99.90;;;;;;4993234;28;20030;-67
2022/03/26 12:46:34;;;;;;;7.68;2.58;;;17.80;99.90;;;;;;4978732;28;20160;-66
2022/03/26 12:49:07;;;;;;;7.20;2.50;;;17.90;99.90;;;;;;4992218;28;20035;-67
2022/03/26 12:51:35;;;;;;;16.27;2.63;;;17.90;99.90;;;;;;4988002;28;20061;-67
2022/03/26 12:54:02;;;;;;;5.75;1.58;;;17.80;99.90;;;;;;4992684;28;20034;-67
2022/03/26 12:56:29;;;;;;;6.28;1.55;;;17.80;99.90;;;;;;4992485;28;20023;-67
2022/03/26 12:58:56;;;;;;;4.00;1.42;;;17.80;99.90;;;;;;4990838;28;20034;-67
2022/03/26 13:01:25;;;;;;;6.82;1.58;;;17.90;99.90;;;;;;4992622;28;20026;-65
2022/03/26 13:03:53;;;;;;;6.28;1.70;;;17.90;99.90;;;;;;4980974;28;20110;-66